Time;durP1;ratioP1;P1;durP2;ratioP2;P2;SDS_P1;SDS_P2;PMS_P1;PMS_P2;Temp;Humidity;BMP_temperature;BMP_pressure;BME280_temperature;BME280_humidity;BME280_pressure;Samples;Min_cycle;Max_cycle;Signal;HPM_P1;HPM_P2
2021/11/13 00:00:26;;;;;;;83.50;45.05;;;2.40;99.90;;;;;;4976939;28;20030;-71
2021/11/13 00:02:53;;;;;;;86.72;44.10;;;2.40;99.90;;;;;;4957584;28;20031;-71
2021/11/13 00:05:19;;;;;;;78.95;43.45;;;2.40;99.90;;;;;;4956187;28;20520;-71
2021/11/13 00:07:46;;;;;;;65.22;39.08;;;2.40;99.90;;;;;;4966687;28;20469;-72
2021/11/13 00:10:15;;;;;;;74.13;44.08;;;2.40;99.90;;;;;;4955185;28;20034;-71
2021/11/13 00:12:43;;;;;;;75.00;43.33;;;2.40;99.90;;;;;;4955757;28;20043;-71
2021/11/13 00:15:11;;;;;;;74.72;44.03;;;2.40;99.90;;;;;;4954745;28;20047;-71
2021/11/13 00:17:37;;;;;;;87.00;44.47;;;2.40;99.90;;;;;;4955638;29;20038;-71
2021/11/13 00:20:05;;;;;;;74.47;43.20;;;2.40;99.90;;;;;;4971258;28;20503;-71
2021/11/13 00:22:33;;;;;;;86.75;43.47;;;2.40;99.90;;;;;;4957362;28;20051;-71
2021/11/13 00:24:59;;;;;;;78.50;43.33;;;2.40;99.90;;;;;;4955606;28;20042;-71
2021/11/13 00:27:25;;;;;;;79.53;43.22;;;2.40;99.90;;;;;;4971482;28;20480;-74
2021/11/13 00:29:51;;;;;;;80.80;45.35;;;2.40;99.90;;;;;;4977274;28;20046;-71
2021/11/13 00:32:17;;;;;;;81.45;44.75;;;2.40;99.90;;;;;;4961792;28;20388;-71
2021/11/13 00:34:44;;;;;;;89.00;42.92;;;2.40;99.90;;;;;;4955184;28;20048;-71
2021/11/13 00:37:10;;;;;;;85.22;45.28;;;2.40;99.90;;;;;;4955752;28;20464;-71
2021/11/13 00:39:36;;;;;;;82.35;45.33;;;2.50;99.90;;;;;;4955304;28;20036;-71
2021/11/13 00:42:02;;;;;;;81.63;44.38;;;2.50;99.90;;;;;;4963200;28;20041;-71
2021/11/13 00:44:29;;;;;;;87.00;48.10;;;2.50;99.90;;;;;;4968581;28;20047;-71
2021/11/13 00:46:55;;;;;;;83.20;45.47;;;2.40;99.90;;;;;;4955277;28;20031;-71
2021/11/13 00:49:23;;;;;;;79.22;44.03;;;2.50;99.90;;;;;;4968147;28;20034;-71
2021/11/13 00:51:49;;;;;;;89.18;44.80;;;2.40;99.90;;;;;;4960083;28;20035;-71
2021/11/13 00:54:15;;;;;;;102.63;46.63;;;2.50;99.90;;;;;;4955870;28;20027;-71
2021/11/13 00:56:41;;;;;;;85.20;46.05;;;2.40;99.90;;;;;;4955112;28;20035;-71
2021/11/13 00:59:08;;;;;;;91.47;45.53;;;2.40;99.90;;;;;;4955466;29;20508;-71
2021/11/13 01:01:35;;;;;;;78.45;42.53;;;2.40;99.90;;;;;;4954626;28;20043;-71
2021/11/13 01:04:02;;;;;;;102.90;47.30;;;2.50;99.90;;;;;;4958479;28;20029;-71
2021/11/13 01:06:28;;;;;;;88.82;44.90;;;2.40;99.90;;;;;;4971254;28;20050;-71
2021/11/13 01:08:54;;;;;;;110.03;46.65;;;2.50;99.90;;;;;;4955199;28;20031;-72
2021/11/13 01:11:21;;;;;;;78.70;42.42;;;2.40;99.90;;;;;;4955215;28;20043;-78
2021/11/13 01:13:47;;;;;;;88.68;45.72;;;2.40;99.90;;;;;;4955010;29;20054;-71
2021/11/13 01:16:15;;;;;;;91.13;46.92;;;2.40;99.90;;;;;;4954690;28;20035;-71
2021/11/13 01:18:42;;;;;;;86.18;45.65;;;2.40;99.90;;;;;;4968248;28;20286;-72
2021/11/13 01:21:09;;;;;;;73.00;40.95;;;2.40;99.90;;;;;;4962808;28;20055;-77
2021/11/13 01:23:36;;;;;;;85.45;42.65;;;2.40;99.90;;;;;;4972328;28;20039;-73
2021/11/13 01:26:03;;;;;;;95.95;46.67;;;2.40;99.90;;;;;;4954332;28;20035;-72
2021/11/13 01:28:30;;;;;;;86.35;44.67;;;2.50;99.90;;;;;;4965058;28;20420;-72
2021/11/13 01:30:56;;;;;;;81.60;43.25;;;2.50;99.90;;;;;;4954959;28;20031;-72
2021/11/13 01:33:23;;;;;;;84.63;42.58;;;2.40;99.90;;;;;;4954533;28;20046;-72
2021/11/13 01:35:49;;;;;;;80.85;42.50;;;2.40;99.90;;;;;;4954990;28;20039;-71
2021/11/13 01:38:16;;;;;;;82.00;42.50;;;2.40;99.90;;;;;;4954635;28;20027;-71
2021/11/13 01:40:43;;;;;;;75.07;40.83;;;2.40;99.90;;;;;;4952520;28;20050;-71
2021/11/13 01:43:10;;;;;;;81.10;41.35;;;2.40;99.90;;;;;;4968376;28;20416;-72
2021/11/13 01:45:36;;;;;;;69.60;41.63;;;2.40;99.90;;;;;;4954401;29;20046;-71
2021/11/13 01:48:03;;;;;;;88.50;43.35;;;2.50;99.90;;;;;;4954711;28;20031;-71
2021/11/13 01:50:40;;;;;;;84.25;42.88;;;2.50;99.90;;;;;;4954135;28;20487;-71
2021/11/13 01:53:07;;;;;;;71.18;40.90;;;2.50;99.90;;;;;;4954677;28;20031;-71
2021/11/13 01:55:36;;;;;;;95.82;45.40;;;2.40;99.90;;;;;;4953829;28;20031;-72
2021/11/13 01:58:11;;;;;;;97.25;44.38;;;2.40;99.90;;;;;;4954332;28;20028;-72
2021/11/13 02:00:57;;;;;;;94.03;46.10;;;2.40;99.90;;;;;;4954135;28;20027;-71
2021/11/13 02:03:24;;;;;;;78.95;41.22;;;2.40;99.90;;;;;;4954531;28;20373;-72
2021/11/13 02:05:51;;;;;;;84.80;44.83;;;2.40;99.90;;;;;;4953945;28;20058;-71
2021/11/13 02:08:18;;;;;;;96.68;44.40;;;2.40;99.90;;;;;;4954285;28;20035;-71
2021/11/13 02:10:45;;;;;;;80.57;43.28;;;2.40;99.90;;;;;;4953785;28;20388;-71
2021/11/13 02:13:12;;;;;;;90.40;41.25;;;2.40;99.90;;;;;;4954940;28;20330;-71
2021/11/13 02:15:38;;;;;;;85.72;43.50;;;2.40;99.90;;;;;;4958929;28;20046;-71
2021/11/13 02:18:05;;;;;;;87.63;44.20;;;2.40;99.90;;;;;;4959305;28;20032;-71
2021/11/13 02:20:34;;;;;;;87.25;43.47;;;2.50;99.90;;;;;;4966371;28;20046;-72
2021/11/13 02:23:04;;;;;;;84.70;42.75;;;2.50;99.90;;;;;;4959145;28;20046;-71
2021/11/13 02:25:33;;;;;;;80.35;42.55;;;2.50;99.90;;;;;;4964463;28;20043;-71
2021/11/13 02:28:00;;;;;;;161.13;103.75;;;2.50;99.90;;;;;;4965590;28;20031;-71
2021/11/13 02:30:27;;;;;;;117.40;73.72;;;2.50;99.90;;;;;;4953827;28;20039;-71
2021/11/13 02:32:54;;;;;;;121.00;73.32;;;2.50;99.90;;;;;;4954639;28;20031;-71
2021/11/13 02:35:24;;;;;;;176.60;115.20;;;2.50;99.90;;;;;;4958159;28;20043;-72
2021/11/13 02:37:51;;;;;;;106.60;58.83;;;2.50;99.90;;;;;;4957586;28;20054;-71
2021/11/13 02:40:18;;;;;;;180.00;131.35;;;2.50;99.90;;;;;;4958176;28;20449;-71
2021/11/13 02:42:46;;;;;;;117.47;73.65;;;2.50;99.90;;;;;;4957732;28;20043;-71
2021/11/13 02:45:15;;;;;;;110.75;66.13;;;2.50;99.90;;;;;;4957438;28;20035;-71
2021/11/13 02:47:44;;;;;;;128.48;74.57;;;2.50;99.90;;;;;;4957266;28;20388;-71
2021/11/13 02:50:13;;;;;;;91.60;46.15;;;2.60;99.90;;;;;;4964868;28;20041;-71
2021/11/13 02:52:52;;;;;;;100.63;53.10;;;2.60;99.90;;;;;;4958390;28;20047;-71
2021/11/13 02:55:19;;;;;;;79.47;41.72;;;2.60;99.90;;;;;;4964946;28;20522;-71
2021/11/13 02:57:45;;;;;;;76.07;43.63;;;2.60;99.90;;;;;;4957230;28;20031;-71
2021/11/13 03:00:14;;;;;;;94.65;48.35;;;2.70;99.90;;;;;;4957904;28;20031;-71
2021/11/13 03:02:43;;;;;;;80.53;43.88;;;2.70;99.90;;;;;;4957029;28;20062;-71
2021/11/13 03:05:19;;;;;;;85.93;44.35;;;2.70;99.90;;;;;;4957214;28;20051;-72
2021/11/13 03:07:45;;;;;;;90.00;44.33;;;2.70;99.90;;;;;;4957817;28;20389;-71
2021/11/13 03:10:16;;;;;;;82.95;44.72;;;2.80;99.90;;;;;;4971766;28;20464;-73
2021/11/13 03:12:46;;;;;;;81.78;47.47;;;2.80;99.90;;;;;;4957631;28;20397;-71
2021/11/13 03:15:15;;;;;;;85.55;44.65;;;2.80;99.90;;;;;;4957461;28;20050;-71
2021/11/13 03:17:41;;;;;;;67.55;40.95;;;2.80;99.90;;;;;;4956180;28;20043;-72
2021/11/13 03:20:10;;;;;;;86.38;53.38;;;2.80;99.90;;;;;;4957224;28;20030;-71
2021/11/13 03:22:38;;;;;;;69.97;46.30;;;2.80;99.90;;;;;;4956714;28;20112;-71
2021/11/13 03:25:10;;;;;;;68.22;42.55;;;2.80;99.90;;;;;;4957302;28;20477;-71
2021/11/13 03:27:40;;;;;;;104.85;73.72;;;2.80;99.90;;;;;;4956895;28;20035;-71
2021/11/13 03:30:07;;;;;;;80.85;47.60;;;2.80;99.90;;;;;;4973921;28;20034;-71
2021/11/13 03:32:34;;;;;;;132.98;75.72;;;2.70;99.90;;;;;;4965476;28;20475;-71
2021/11/13 03:35:02;;;;;;;119.10;76.35;;;2.70;99.90;;;;;;4957324;28;20046;-71
2021/11/13 03:37:29;;;;;;;115.70;80.60;;;2.70;99.90;;;;;;4957293;28;20047;-71
2021/11/13 03:39:55;;;;;;;99.30;59.28;;;2.80;99.90;;;;;;4967215;28;20038;-71
2021/11/13 03:42:24;;;;;;;70.72;40.90;;;2.70;99.90;;;;;;4956588;28;20047;-71
2021/11/13 03:44:51;;;;;;;75.88;44.50;;;2.70;99.90;;;;;;4956436;28;20044;-71
2021/11/13 03:47:20;;;;;;;65.90;40.45;;;2.70;99.90;;;;;;4961060;28;20038;-71
2021/11/13 03:49:47;;;;;;;66.47;38.40;;;2.80;99.90;;;;;;4965793;28;20031;-71
2021/11/13 03:52:13;;;;;;;92.45;59.47;;;2.80;99.90;;;;;;4955398;28;20042;-71
2021/11/13 03:54:39;;;;;;;83.57;47.95;;;2.90;99.90;;;;;;4956453;28;20046;-71
2021/11/13 03:57:06;;;;;;;99.28;82.38;;;2.80;99.90;;;;;;4956528;28;20034;-71
2021/11/13 03:59:32;;;;;;;70.60;42.28;;;2.80;99.90;;;;;;4955924;28;20031;-71
2021/11/13 04:01:59;;;;;;;78.65;47.40;;;2.80;99.90;;;;;;4956264;28;20065;-71
2021/11/13 04:04:28;;;;;;;68.18;43.25;;;2.80;99.90;;;;;;4955344;28;20523;-71
2021/11/13 04:06:54;;;;;;;81.03;47.25;;;2.80;99.90;;;;;;4956116;28;20039;-71
2021/11/13 04:09:21;;;;;;;86.13;51.53;;;2.80;99.90;;;;;;4959158;28;20369;-71
2021/11/13 04:11:47;;;;;;;98.65;65.57;;;2.80;99.90;;;;;;4974575;28;20046;-71
2021/11/13 04:14:13;;;;;;;81.90;50.00;;;2.80;99.90;;;;;;4962160;28;20047;-71
2021/11/13 04:16:40;;;;;;;116.18;70.75;;;2.90;99.90;;;;;;4955816;28;20060;-70
2021/11/13 04:19:10;;;;;;;84.63;56.53;;;2.90;99.90;;;;;;4955766;28;20038;-72
2021/11/13 04:21:37;;;;;;;86.13;47.20;;;2.90;99.90;;;;;;4966816;28;20046;-71
2021/11/13 04:24:05;;;;;;;76.22;42.63;;;2.90;99.90;;;;;;4956368;28;20057;-71
2021/11/13 04:26:32;;;;;;;70.55;44.22;;;2.90;99.90;;;;;;4955389;28;20473;-71
2021/11/13 04:28:58;;;;;;;71.30;45.92;;;2.90;99.90;;;;;;4956877;28;20042;-71
2021/11/13 04:31:25;;;;;;;76.00;50.60;;;2.90;99.90;;;;;;4963059;28;20043;-71
2021/11/13 04:33:56;;;;;;;74.15;47.15;;;3.00;99.90;;;;;;4956376;28;20058;-71
2021/11/13 04:36:25;;;;;;;68.75;44.58;;;2.90;99.90;;;;;;4955828;28;20035;-71
2021/11/13 04:38:51;;;;;;;74.30;51.92;;;2.90;99.90;;;;;;4956175;28;20026;-71
2021/11/13 04:41:17;;;;;;;93.18;58.97;;;2.90;99.90;;;;;;4955630;28;20031;-70
2021/11/13 04:43:44;;;;;;;85.53;46.47;;;2.90;99.90;;;;;;4968227;28;20046;-70
2021/11/13 04:46:10;;;;;;;76.32;44.50;;;2.90;99.90;;;;;;4955474;28;20046;-70
2021/11/13 04:48:36;;;;;;;81.00;47.15;;;2.90;99.90;;;;;;4955057;29;20046;-70
2021/11/13 04:51:02;;;;;;;87.00;44.47;;;2.90;99.90;;;;;;4955108;28;20370;-71
2021/11/13 04:53:31;;;;;;;78.30;48.20;;;2.90;99.90;;;;;;4954745;29;20043;-71
2021/11/13 04:55:57;;;;;;;68.90;42.83;;;2.90;99.90;;;;;;4954677;28;20062;-71
2021/11/13 04:58:24;;;;;;;69.90;40.47;;;2.90;99.90;;;;;;4955349;28;20441;-71
2021/11/13 05:00:50;;;;;;;66.32;41.47;;;2.90;99.90;;;;;;4955397;29;20035;-71
2021/11/13 05:03:16;;;;;;;73.07;42.45;;;2.90;99.90;;;;;;4955132;28;20043;-70
2021/11/13 05:05:42;;;;;;;65.53;42.70;;;2.90;99.90;;;;;;4954805;28;20046;-71
2021/11/13 05:08:08;;;;;;;71.95;40.33;;;2.90;99.90;;;;;;4969860;28;20034;-70
2021/11/13 05:10:38;;;;;;;65.82;39.13;;;2.90;99.90;;;;;;4958446;28;20047;-70
2021/11/13 05:13:04;;;;;;;65.28;41.63;;;2.90;99.90;;;;;;4953512;28;20050;-71
2021/11/13 05:15:30;;;;;;;71.97;39.00;;;2.90;99.90;;;;;;4954674;28;20042;-71
2021/11/13 05:17:56;;;;;;;70.97;39.35;;;2.90;99.90;;;;;;4961407;28;20381;-72
2021/11/13 05:20:23;;;;;;;66.63;38.67;;;2.90;99.90;;;;;;4958581;28;20469;-74
2021/11/13 05:22:49;;;;;;;63.67;39.72;;;2.90;99.90;;;;;;4958639;28;20051;-71
2021/11/13 05:25:21;;;;;;;61.45;40.22;;;2.90;99.90;;;;;;4962327;28;20051;-71
2021/11/13 05:27:49;;;;;;;67.97;41.13;;;2.90;99.90;;;;;;4954811;28;20027;-71
2021/11/13 05:30:17;;;;;;;67.72;42.08;;;2.90;99.90;;;;;;4955074;28;20027;-71
2021/11/13 05:32:43;;;;;;;71.30;44.88;;;2.90;99.90;;;;;;4969163;28;20054;-71
2021/11/13 05:35:10;;;;;;;76.68;41.65;;;2.90;99.90;;;;;;4957036;28;20054;-71
2021/11/13 05:37:38;;;;;;;76.80;45.20;;;2.90;99.90;;;;;;4965481;28;20035;-72
2021/11/13 05:40:07;;;;;;;64.13;39.22;;;2.90;99.90;;;;;;4954603;28;20036;-73
2021/11/13 05:42:34;;;;;;;71.30;41.50;;;2.80;99.90;;;;;;4954276;28;20400;-72
2021/11/13 05:45:02;;;;;;;67.97;40.92;;;2.90;99.90;;;;;;4954527;28;20397;-72
2021/11/13 05:47:28;;;;;;;69.97;40.95;;;2.90;99.90;;;;;;4970330;28;20474;-71
2021/11/13 05:49:55;;;;;;;59.05;38.58;;;2.80;99.90;;;;;;4972344;28;20392;-73
2021/11/13 05:52:22;;;;;;;65.40;40.45;;;2.80;99.90;;;;;;4952653;28;20039;-71
2021/11/13 05:54:49;;;;;;;72.80;41.92;;;2.80;99.90;;;;;;4954334;28;20035;-71
2021/11/13 05:57:15;;;;;;;53.55;37.30;;;2.80;99.90;;;;;;4954446;28;20050;-71
2021/11/13 05:59:41;;;;;;;65.13;38.00;;;2.80;99.90;;;;;;4953863;28;20038;-71
2021/11/13 06:02:08;;;;;;;60.05;37.58;;;2.80;99.90;;;;;;4954565;28;20039;-71
2021/11/13 06:04:34;;;;;;;65.60;36.40;;;2.70;99.90;;;;;;4953874;28;20043;-71
2021/11/13 06:07:00;;;;;;;55.75;37.00;;;2.70;99.90;;;;;;4954395;28;20039;-71
2021/11/13 06:09:27;;;;;;;51.63;34.53;;;2.70;99.90;;;;;;4953431;28;20065;-77
2021/11/13 06:11:53;;;;;;;60.95;38.13;;;2.70;99.90;;;;;;4962695;28;20027;-71
2021/11/13 06:14:20;;;;;;;60.53;40.03;;;2.70;99.90;;;;;;4962530;28;20047;-71
2021/11/13 06:16:46;;;;;;;60.60;37.28;;;2.70;99.90;;;;;;4954126;28;20279;-72
2021/11/13 06:19:12;;;;;;;53.63;31.38;;;2.70;99.90;;;;;;4954060;28;20051;-71
2021/11/13 06:21:38;;;;;;;46.50;31.58;;;2.70;99.90;;;;;;4953898;28;20054;-72
2021/11/13 06:24:07;;;;;;;47.20;30.65;;;2.60;99.90;;;;;;4954013;28;20031;-72
2021/11/13 06:26:34;;;;;;;49.15;34.00;;;2.70;99.90;;;;;;4956720;28;20039;-72
2021/11/13 06:29:01;;;;;;;49.22;34.63;;;2.70;99.90;;;;;;4963938;28;20039;-71
2021/11/13 06:31:27;;;;;;;46.45;33.38;;;2.70;99.90;;;;;;4967784;28;20047;-75
2021/11/13 06:33:53;;;;;;;43.72;31.67;;;2.70;99.90;;;;;;4954343;28;20469;-71
2021/11/13 06:36:19;;;;;;;49.85;35.20;;;2.70;99.90;;;;;;4954622;28;20039;-71
2021/11/13 06:38:47;;;;;;;55.58;35.08;;;2.70;99.90;;;;;;4953538;28;20031;-72
2021/11/13 06:41:13;;;;;;;52.28;34.50;;;2.70;99.90;;;;;;4968868;28;20043;-72
2021/11/13 06:43:39;;;;;;;58.35;40.75;;;2.60;99.90;;;;;;4953637;28;20046;-72
2021/11/13 06:46:05;;;;;;;58.63;40.08;;;2.70;99.90;;;;;;4953932;28;20035;-71
2021/11/13 06:48:32;;;;;;;61.85;38.20;;;2.70;99.90;;;;;;4952326;28;20041;-72
2021/11/13 06:50:58;;;;;;;55.30;36.65;;;2.70;99.90;;;;;;4953680;29;20035;-72
2021/11/13 06:53:24;;;;;;;57.38;36.92;;;2.70;99.90;;;;;;4954669;28;20039;-71
2021/11/13 06:55:51;;;;;;;50.00;33.05;;;2.70;99.90;;;;;;4953150;28;20027;-71
2021/11/13 06:58:17;;;;;;;47.03;31.30;;;2.80;99.90;;;;;;4953762;28;20038;-72
2021/11/13 07:00:44;;;;;;;52.03;36.30;;;2.80;99.90;;;;;;4952008;28;20092;-71
2021/11/13 07:03:14;;;;;;;50.50;32.93;;;2.80;99.90;;;;;;4954472;28;20057;-72
2021/11/13 07:05:41;;;;;;;52.70;32.90;;;2.80;99.90;;;;;;4956960;28;20457;-72
2021/11/13 07:08:07;;;;;;;46.50;32.38;;;2.90;99.90;;;;;;4954970;28;20035;-71
2021/11/13 07:10:34;;;;;;;45.42;33.13;;;2.90;99.90;;;;;;4953153;28;20035;-71
2021/11/13 07:13:00;;;;;;;43.97;30.52;;;2.90;99.90;;;;;;4953584;28;20043;-71
2021/11/13 07:15:31;;;;;;;43.03;28.98;;;2.90;99.90;;;;;;4953278;28;20035;-71
2021/11/13 07:18:02;;;;;;;40.60;28.73;;;2.90;99.90;;;;;;4954036;28;20035;-71
2021/11/13 07:20:32;;;;;;;36.22;29.10;;;2.90;99.90;;;;;;4955620;28;20035;-78
2021/11/13 07:22:59;;;;;;;48.83;34.88;;;2.90;99.90;;;;;;4957292;29;20047;-76
2021/11/13 07:25:32;;;;;;;;;;;2.90;99.90;;;;;;4956200;28;20047;-71
2021/11/13 07:28:05;;;;;;;46.47;32.10;;;2.90;99.90;;;;;;4957597;28;19910;-71
2021/11/13 07:30:39;;;;;;;43.53;30.40;;;3.00;99.90;;;;;;4956870;28;20058;-72
2021/11/13 07:33:10;;;;;;;42.13;30.83;;;2.90;99.90;;;;;;4956633;28;20039;-72
2021/11/13 07:35:38;;;;;;;46.15;33.38;;;3.00;99.90;;;;;;4955994;28;20054;-72
2021/11/13 07:38:05;;;;;;;45.30;32.35;;;3.00;99.90;;;;;;4956610;28;20469;-72
2021/11/13 07:40:32;;;;;;;40.67;29.85;;;3.10;99.90;;;;;;4956758;28;20035;-72
2021/11/13 07:43:00;;;;;;;49.30;31.58;;;3.10;99.90;;;;;;4956520;28;20500;-72
2021/11/13 07:45:28;;;;;;;42.45;31.20;;;3.10;99.90;;;;;;4956842;28;20044;-72
2021/11/13 07:47:54;;;;;;;43.58;31.13;;;3.20;99.90;;;;;;4956361;28;20027;-72
2021/11/13 07:50:21;;;;;;;42.00;29.88;;;3.20;99.90;;;;;;4956396;28;20035;-72
2021/11/13 07:52:47;;;;;;;44.85;30.15;;;3.20;99.90;;;;;;4955956;28;20051;-72
2021/11/13 07:55:16;;;;;;;44.85;29.85;;;3.10;99.90;;;;;;4956636;29;20039;-72
2021/11/13 07:57:43;;;;;;;42.78;29.23;;;3.20;99.90;;;;;;4955822;28;20483;-72
2021/11/13 08:00:12;;;;;;;35.78;27.55;;;3.20;99.90;;;;;;4956418;28;20448;-71
2021/11/13 08:02:42;;;;;;;35.03;28.30;;;3.30;99.90;;;;;;4955797;28;20489;-71
2021/11/13 08:05:10;;;;;;;37.42;28.67;;;3.30;99.90;;;;;;4956603;28;20043;-71
2021/11/13 08:07:37;;;;;;;35.97;27.88;;;3.30;99.90;;;;;;4955646;28;20055;-71
2021/11/13 08:10:05;;;;;;;35.53;29.13;;;3.40;99.90;;;;;;4956033;28;20484;-71
2021/11/13 08:12:31;;;;;;;43.13;30.60;;;3.50;99.90;;;;;;4955571;28;20055;-72
2021/11/13 08:14:58;;;;;;;39.30;30.00;;;3.50;99.90;;;;;;4956270;28;20027;-71
2021/11/13 08:17:24;;;;;;;31.23;27.23;;;3.50;99.90;;;;;;4956456;28;20043;-72
2021/11/13 08:19:50;;;;;;;38.45;31.35;;;3.60;99.90;;;;;;4955490;28;20480;-71
2021/11/13 08:22:17;;;;;;;36.00;29.55;;;3.60;99.90;;;;;;4955237;28;20035;-71
2021/11/13 08:24:43;;;;;;;38.67;29.15;;;3.60;99.90;;;;;;4962630;28;20031;-72
2021/11/13 08:27:10;;;;;;;39.72;30.48;;;3.70;99.90;;;;;;4959449;28;20039;-71
2021/11/13 08:29:36;;;;;;;39.20;30.08;;;3.70;99.90;;;;;;4954953;28;20039;-72
2021/11/13 08:32:04;;;;;;;34.08;27.65;;;3.70;99.90;;;;;;4954414;28;20035;-72
2021/11/13 08:34:30;;;;;;;34.78;28.05;;;3.80;99.90;;;;;;4954862;28;20051;-72
2021/11/13 08:36:57;;;;;;;38.65;28.35;;;3.80;99.90;;;;;;4955599;28;20674;-72
2021/11/13 08:39:23;;;;;;;29.92;26.52;;;3.80;99.90;;;;;;4955630;28;20046;-71
2021/11/13 08:41:49;;;;;;;35.22;27.00;;;3.80;99.90;;;;;;4955170;28;20226;-71
2021/11/13 08:44:16;;;;;;;33.90;28.00;;;3.90;99.90;;;;;;4955484;28;20047;-71
2021/11/13 08:46:42;;;;;;;33.80;27.15;;;4.00;99.90;;;;;;4955292;28;20031;-72
2021/11/13 08:49:08;;;;;;;36.45;27.15;;;4.00;99.90;;;;;;4955545;28;20027;-71
2021/11/13 08:51:35;;;;;;;32.13;28.05;;;4.00;99.90;;;;;;4954888;28;20039;-71
2021/11/13 08:54:02;;;;;;;42.03;29.70;;;4.00;99.90;;;;;;4955201;28;20035;-71
2021/11/13 08:56:30;;;;;;;31.25;24.55;;;4.10;99.90;;;;;;4955687;28;20039;-72
2021/11/13 08:58:58;;;;;;;24.63;22.13;;;4.30;99.90;;;;;;4955573;28;20461;-71
2021/11/13 09:01:28;;;;;;;32.85;22.33;;;4.30;99.90;;;;;;4955594;28;20035;-72
2021/11/13 09:03:55;;;;;;;24.95;20.52;;;4.40;99.90;;;;;;4957579;28;20042;-71
2021/11/13 09:06:24;;;;;;;24.00;21.60;;;4.40;99.90;;;;;;4972774;28;20046;-72
2021/11/13 09:08:51;;;;;;;23.75;21.23;;;4.50;99.90;;;;;;4954233;28;20031;-72
2021/11/13 09:11:24;;;;;;;22.02;19.83;;;4.50;99.90;;;;;;4956204;28;20460;-71
2021/11/13 09:13:51;;;;;;;23.48;19.48;;;4.60;99.90;;;;;;4971922;28;20249;-71
2021/11/13 09:16:18;;;;;;;23.17;20.88;;;4.60;99.90;;;;;;4973921;28;20035;-71
2021/11/13 09:18:45;;;;;;;25.33;21.05;;;4.60;99.90;;;;;;4955082;28;21573;-70
2021/11/13 09:21:14;;;;;;;27.85;20.63;;;4.60;99.90;;;;;;4954730;28;20039;-69
2021/11/13 09:23:41;;;;;;;23.38;21.13;;;4.50;99.90;;;;;;4968667;28;20051;-70
2021/11/13 09:26:07;;;;;;;20.52;18.52;;;4.60;99.90;;;;;;4964435;28;20031;-70
2021/11/13 09:28:35;;;;;;;24.35;21.27;;;4.60;99.90;;;;;;4954197;28;20035;-71
2021/11/13 09:31:01;;;;;;;22.23;20.15;;;4.70;99.90;;;;;;4955001;28;20484;-71
2021/11/13 09:33:28;;;;;;;26.58;20.85;;;4.70;99.90;;;;;;4954514;28;20046;-71
2021/11/13 09:35:54;;;;;;;23.55;21.05;;;4.70;99.90;;;;;;4956710;28;20337;-70
2021/11/13 09:38:29;;;;;;;23.65;21.23;;;4.80;99.90;;;;;;4960334;28;20037;-70
2021/11/13 09:40:58;;;;;;;22.80;20.40;;;4.90;99.90;;;;;;4955260;28;20027;-71
2021/11/13 09:43:30;;;;;;;23.40;20.67;;;4.90;99.90;;;;;;4953879;28;20051;-71
2021/11/13 09:45:58;;;;;;;24.95;21.42;;;4.80;99.90;;;;;;4954745;28;20437;-71
2021/11/13 09:48:25;;;;;;;23.45;21.08;;;4.90;99.90;;;;;;4954244;28;20031;-72
2021/11/13 09:50:52;;;;;;;24.15;21.45;;;4.90;99.90;;;;;;4954265;28;20031;-72
2021/11/13 09:53:20;;;;;;;24.95;22.23;;;4.90;99.90;;;;;;4965563;28;20465;-70
2021/11/13 09:55:48;;;;;;;23.00;20.75;;;5.00;99.90;;;;;;4955835;28;20023;-71
2021/11/13 09:58:15;;;;;;;22.48;20.17;;;5.00;99.90;;;;;;4970736;28;20030;-72
2021/11/13 10:00:42;;;;;;;28.98;22.58;;;5.00;99.90;;;;;;4966294;28;20038;-72
2021/11/13 10:03:09;;;;;;;24.75;21.30;;;4.90;99.90;;;;;;4961062;28;20119;-70
2021/11/13 10:05:37;;;;;;;26.40;20.63;;;5.00;99.90;;;;;;4952968;28;20039;-72
2021/11/13 10:08:04;;;;;;;22.00;19.77;;;5.00;99.90;;;;;;4953147;28;20038;-70
2021/11/13 10:10:36;;;;;;;23.43;21.27;;;5.00;99.90;;;;;;4953729;28;20027;-71
2021/11/13 10:13:05;;;;;;;23.15;20.35;;;5.10;99.90;;;;;;4961277;28;20494;-71
2021/11/13 10:15:34;;;;;;;24.98;20.80;;;5.10;99.90;;;;;;4971239;28;20136;-80
2021/11/13 10:18:20;;;;;;;23.30;21.00;;;5.20;99.90;;;;;;4972772;28;20035;-71
2021/11/13 10:20:50;;;;;;;25.50;21.70;;;5.20;99.90;;;;;;4964613;28;20035;-71
2021/11/13 10:23:20;;;;;;;27.50;21.75;;;5.30;99.90;;;;;;4968383;28;20446;-71
2021/11/13 10:26:07;;;;;;;23.08;19.77;;;5.40;99.90;;;;;;4970226;28;20035;-70
2021/11/13 10:28:45;;;;;;;21.75;19.58;;;5.40;99.90;;;;;;4969410;28;20034;-73
2021/11/13 10:31:19;;;;;;;23.58;21.17;;;5.50;99.90;;;;;;4970314;28;20042;-71
2021/11/13 10:33:47;;;;;;;24.55;21.92;;;5.50;99.90;;;;;;4969707;28;20046;-70
2021/11/13 10:36:20;;;;;;;23.75;21.25;;;5.60;99.90;;;;;;4968226;28;20468;-71
2021/11/13 10:38:49;;;;;;;21.90;19.75;;;5.60;99.90;;;;;;4968702;28;20042;-71
2021/11/13 10:41:15;;;;;;;24.20;21.60;;;5.70;99.90;;;;;;4963607;28;20035;-71
2021/11/13 10:43:45;;;;;;;23.73;19.48;;;5.60;99.90;;;;;;4959995;28;20050;-76
2021/11/13 10:46:17;;;;;;;26.92;20.42;;;5.60;99.90;;;;;;4964722;28;20039;-72
2021/11/13 10:48:50;;;;;;;21.75;19.73;;;5.60;99.90;;;;;;4953437;28;20055;-72
2021/11/13 10:51:23;;;;;;;22.45;20.02;;;5.70;99.90;;;;;;4953233;28;20047;-71
2021/11/13 10:53:50;;;;;;;24.65;21.95;;;5.70;99.90;;;;;;4953352;28;20035;-72
2021/11/13 10:56:26;;;;;;;26.42;21.13;;;5.70;99.90;;;;;;4975715;28;20035;-71
2021/11/13 10:58:56;;;;;;;22.52;20.25;;;5.70;99.90;;;;;;4962473;28;20046;-72
2021/11/13 11:01:22;;;;;;;23.95;20.67;;;5.70;99.90;;;;;;4957391;29;20031;-71
2021/11/13 11:03:51;;;;;;;21.77;19.48;;;5.70;99.90;;;;;;4956956;28;20051;-70
2021/11/13 11:06:30;;;;;;;24.20;20.52;;;5.70;99.90;;;;;;4957290;28;20035;-71
2021/11/13 11:08:56;;;;;;;23.38;21.08;;;5.70;99.90;;;;;;4956731;28;20035;-70
2021/11/13 11:11:27;;;;;;;34.60;28.02;;;5.80;99.90;;;;;;4957236;28;20039;-71
2021/11/13 11:13:58;;;;;;;34.75;31.08;;;5.80;99.90;;;;;;4956554;28;20389;-71
2021/11/13 11:16:26;;;;;;;;;;;5.80;99.90;;;;;;4971485;28;20392;-70
2021/11/13 11:18:55;;;;;;;25.20;22.80;;;5.80;99.90;;;;;;4957260;28;19907;-71
2021/11/13 11:21:52;;;;;;;29.67;26.60;;;5.80;99.90;;;;;;4956528;28;20039;-71
2021/11/13 11:24:37;;;;;;;33.30;29.75;;;5.80;99.90;;;;;;4957452;28;20047;-73
2021/11/13 11:27:19;;;;;;;34.17;25.92;;;5.80;99.90;;;;;;4956961;28;20043;-71
2021/11/13 11:29:56;;;;;;;29.50;24.30;;;5.80;99.90;;;;;;4968094;28;20035;-71
2021/11/13 11:32:27;;;;;;;26.55;23.33;;;5.80;99.90;;;;;;4957156;28;20488;-75
2021/11/13 11:34:55;;;;;;;40.25;32.00;;;5.90;99.90;;;;;;4971162;28;20053;-73
2021/11/13 11:37:46;;;;;;;27.45;24.60;;;5.90;99.90;;;;;;4957030;28;20031;-72
2021/11/13 11:40:14;;;;;;;;;;;5.80;99.90;;;;;;4971504;28;20042;-71
2021/11/13 11:42:41;;;;;;;26.65;24.17;;;5.80;99.90;;;;;;4956437;28;19921;-72
2021/11/13 11:45:09;;;;;;;29.75;26.65;;;5.90;99.90;;;;;;4956671;28;20059;-72
2021/11/13 11:47:36;;;;;;;37.30;31.77;;;5.90;99.90;;;;;;4969994;28;20022;-72
2021/11/13 11:50:08;;;;;;;37.65;28.35;;;5.90;99.90;;;;;;4969413;28;20054;-72
2021/11/13 11:52:35;;;;;;;30.02;26.80;;;5.90;99.90;;;;;;4973305;28;20481;-72
2021/11/13 11:55:05;;;;;;;24.90;22.50;;;6.00;99.90;;;;;;4972108;28;20045;-73
2021/11/13 11:57:40;;;;;;;30.27;27.02;;;6.00;99.90;;;;;;4974069;28;20031;-72
2021/11/13 12:00:16;;;;;;;32.22;25.05;;;6.10;99.90;;;;;;4967148;28;20492;-72
2021/11/13 12:02:50;;;;;;;28.20;25.52;;;6.10;99.90;;;;;;4956024;29;20502;-72
2021/11/13 12:05:19;;;;;;;27.30;24.63;;;6.20;99.90;;;;;;4971696;28;20377;-71
2021/11/13 12:07:47;;;;;;;28.50;25.52;;;6.30;99.90;;;;;;4974333;28;20027;-71
2021/11/13 12:10:22;;;;;;;33.10;28.75;;;6.30;99.90;;;;;;4973340;28;20388;-71
2021/11/13 12:13:09;;;;;;;29.42;26.15;;;6.30;99.90;;;;;;4971788;28;20045;-72
2021/11/13 12:15:44;;;;;;;26.52;23.83;;;6.40;99.90;;;;;;4968766;28;20039;-71
2021/11/13 12:18:24;;;;;;;29.60;26.63;;;6.40;99.90;;;;;;4969331;28;20051;-72
2021/11/13 12:20:51;;;;;;;39.20;33.90;;;6.40;99.90;;;;;;4972269;28;20035;-71
2021/11/13 12:23:28;;;;;;;43.85;38.28;;;6.50;99.90;;;;;;4973381;28;20041;-72
2021/11/13 12:25:57;;;;;;;31.65;26.88;;;6.40;99.90;;;;;;4972166;28;20027;-72
2021/11/13 12:28:26;;;;;;;27.67;24.70;;;6.50;99.90;;;;;;4973708;28;20023;-74
2021/11/13 12:31:01;;;;;;;38.72;34.78;;;6.40;99.90;;;;;;4972770;28;20027;-72
2021/11/13 12:33:27;;;;;;;31.50;28.25;;;6.50;99.90;;;;;;4969178;28;20464;-72
2021/11/13 12:36:03;;;;;;;44.67;35.95;;;6.50;99.90;;;;;;4973485;28;20058;-73
2021/11/13 12:38:48;;;;;;;28.83;23.67;;;6.40;99.90;;;;;;4973776;28;20462;-72
2021/11/13 12:41:22;;;;;;;29.40;25.27;;;6.40;99.90;;;;;;4972475;28;20039;-72
2021/11/13 12:44:09;;;;;;;49.20;44.25;;;6.40;99.90;;;;;;4970112;28;20030;-71